sensor_id;sensor_type;location;lat;lon;timestamp;P1;durP1;ratioP1;P2;durP2;ratioP2
38909;SDS011;24676;51.360;12.354;2022-10-14T04:01:09;6.32;;;4.57;;
38909;SDS011;24676;51.360;12.354;2022-10-14T04:03:53;13.20;;;6.47;;
38909;SDS011;24676;51.360;12.354;2022-10-14T04:06:37;7.20;;;4.80;;
38909;SDS011;24676;51.360;12.354;2022-10-14T04:09:21;9.00;;;4.75;;
38909;SDS011;24676;51.360;12.354;2022-10-14T04:12:05;7.78;;;5.55;;
38909;SDS011;24676;51.360;12.354;2022-10-14T04:14:49;8.13;;;4.30;;
38909;SDS011;24676;51.360;12.354;2022-10-14T04:17:33;9.65;;;5.90;;
38909;SDS011;24676;51.360;12.354;2022-10-14T04:20:17;15.00;;;7.07;;
38909;SDS011;24676;51.360;12.354;2022-10-14T04:23:01;7.45;;;4.75;;
38909;SDS011;24676;51.360;12.354;2022-10-14T04:25:45;8.18;;;6.05;;
38909;SDS011;24676;51.360;12.354;2022-10-14T04:28:29;10.60;;;5.75;;
38909;SDS011;24676;51.360;12.354;2022-10-14T04:31:14;9.45;;;4.53;;
38909;SDS011;24676;51.360;12.354;2022-10-14T04:33:58;8.68;;;5.90;;
38909;SDS011;24676;51.360;12.354;2022-10-14T04:36:42;10.63;;;6.57;;
38909;SDS011;24676;51.360;12.354;2022-10-14T04:39:26;9.82;;;5.78;;
38909;SDS011;24676;51.360;12.354;2022-10-14T04:42:10;14.23;;;7.05;;
38909;SDS011;24676;51.360;12.354;2022-10-14T04:44:55;12.00;;;6.13;;
38909;SDS011;24676;51.360;12.354;2022-10-14T04:47:39;9.63;;;4.57;;
38909;SDS011;24676;51.360;12.354;2022-10-14T04:50:24;10.85;;;6.30;;
38909;SDS011;24676;51.360;12.354;2022-10-14T04:53:08;4.18;;;3.58;;
38909;SDS011;24676;51.360;12.354;2022-10-14T04:55:52;12.25;;;5.25;;
38909;SDS011;24676;51.360;12.354;2022-10-14T04:58:37;12.93;;;6.03;;
38909;SDS011;24676;51.360;12.354;2022-10-14T05:01:21;9.40;;;5.90;;
38909;SDS011;24676;51.360;12.354;2022-10-14T05:04:05;7.43;;;4.18;;
38909;SDS011;24676;51.360;12.354;2022-10-14T05:06:49;9.75;;;5.80;;
38909;SDS011;24676;51.360;12.354;2022-10-14T05:09:34;12.48;;;7.25;;
38909;SDS011;24676;51.360;12.354;2022-10-14T05:12:18;11.52;;;6.50;;
38909;SDS011;24676;51.360;12.354;2022-10-14T05:15:03;9.48;;;5.22;;
38909;SDS011;24676;51.360;12.354;2022-10-14T05:17:48;11.95;;;4.65;;
38909;SDS011;24676;51.360;12.354;2022-10-14T05:20:32;9.15;;;6.15;;
38909;SDS011;24676;51.360;12.354;2022-10-14T05:23:17;6.07;;;4.38;;
38909;SDS011;24676;51.360;12.354;2022-10-14T05:26:01;12.57;;;6.85;;
38909;SDS011;24676;51.360;12.354;2022-10-14T05:28:46;10.48;;;5.68;;
38909;SDS011;24676;51.360;12.354;2022-10-14T05:31:31;10.35;;;5.60;;
38909;SDS011;24676;51.360;12.354;2022-10-14T05:34:15;8.50;;;6.03;;
38909;SDS011;24676;51.360;12.354;2022-10-14T05:36:59;9.73;;;6.15;;
38909;SDS011;24676;51.360;12.354;2022-10-14T05:39:43;10.77;;;7.07;;
38909;SDS011;24676;51.360;12.354;2022-10-14T05:42:27;11.95;;;6.60;;
38909;SDS011;24676;51.360;12.354;2022-10-14T05:45:11;18.40;;;5.00;;
38909;SDS011;24676;51.360;12.354;2022-10-14T05:47:55;12.93;;;7.50;;
38909;SDS011;24676;51.360;12.354;2022-10-14T05:50:40;10.57;;;6.60;;
38909;SDS011;24676;51.360;12.354;2022-10-14T05:53:25;12.20;;;7.57;;
38909;SDS011;24676;51.360;12.354;2022-10-14T05:56:09;22.52;;;11.43;;
38909;SDS011;24676;51.360;12.354;2022-10-14T05:58:53;17.77;;;11.05;;
38909;SDS011;24676;51.360;12.354;2022-10-14T06:01:38;13.05;;;7.47;;
38909;SDS011;24676;51.360;12.354;2022-10-14T06:04:23;9.40;;;5.15;;
38909;SDS011;24676;51.360;12.354;2022-10-14T06:07:07;11.63;;;7.35;;
38909;SDS011;24676;51.360;12.354;2022-10-14T06:09:52;9.23;;;6.30;;
38909;SDS011;24676;51.360;12.354;2022-10-14T06:12:37;7.68;;;4.80;;
38909;SDS011;24676;51.360;12.354;2022-10-14T06:15:21;10.48;;;6.43;;
38909;SDS011;24676;51.360;12.354;2022-10-14T06:18:06;10.40;;;6.38;;
38909;SDS011;24676;51.360;12.354;2022-10-14T06:20:51;12.02;;;6.13;;
38909;SDS011;24676;51.360;12.354;2022-10-14T06:23:36;9.73;;;5.07;;
38909;SDS011;24676;51.360;12.354;2022-10-14T06:26:20;13.23;;;6.35;;
38909;SDS011;24676;51.360;12.354;2022-10-14T06:29:04;14.88;;;6.75;;
38909;SDS011;24676;51.360;12.354;2022-10-14T06:31:48;11.35;;;6.53;;
38909;SDS011;24676;51.360;12.354;2022-10-14T06:34:32;13.25;;;6.93;;
38909;SDS011;24676;51.360;12.354;2022-10-14T06:37:16;17.58;;;7.10;;
38909;SDS011;24676;51.360;12.354;2022-10-14T06:40:00;11.43;;;6.85;;
38909;SDS011;24676;51.360;12.354;2022-10-14T06:42:45;16.33;;;7.78;;
38909;SDS011;24676;51.360;12.354;2022-10-14T06:45:29;11.77;;;7.50;;
38909;SDS011;24676;51.360;12.354;2022-10-14T06:48:13;10.80;;;6.30;;
38909;SDS011;24676;51.360;12.354;2022-10-14T06:50:58;14.18;;;8.40;;
38909;SDS011;24676;51.360;12.354;2022-10-14T06:53:43;8.75;;;4.72;;
38909;SDS011;24676;51.360;12.354;2022-10-14T06:56:27;10.00;;;6.03;;
38909;SDS011;24676;51.360;12.354;2022-10-14T06:59:11;8.55;;;5.38;;
38909;SDS011;24676;51.360;12.354;2022-10-14T07:01:56;9.45;;;6.00;;
38909;SDS011;24676;51.360;12.354;2022-10-14T07:04:40;6.90;;;4.80;;
38909;SDS011;24676;51.360;12.354;2022-10-14T07:07:24;9.73;;;6.70;;
38909;SDS011;24676;51.360;12.354;2022-10-14T07:10:09;16.73;;;8.20;;
38909;SDS011;24676;51.360;12.354;2022-10-14T07:12:53;14.02;;;6.03;;
38909;SDS011;24676;51.360;12.354;2022-10-14T07:15:38;9.77;;;5.82;;
38909;SDS011;24676;51.360;12.354;2022-10-14T07:18:22;9.23;;;5.75;;
38909;SDS011;24676;51.360;12.354;2022-10-14T07:21:06;10.23;;;5.70;;
38909;SDS011;24676;51.360;12.354;2022-10-14T07:23:50;11.27;;;7.03;;
38909;SDS011;24676;51.360;12.354;2022-10-14T07:26:34;12.23;;;7.30;;
38909;SDS011;24676;51.360;12.354;2022-10-14T07:29:18;7.85;;;5.55;;
38909;SDS011;24676;51.360;12.354;2022-10-14T07:32:03;9.10;;;5.03;;
38909;SDS011;24676;51.360;12.354;2022-10-14T07:34:47;16.63;;;6.65;;
38909;SDS011;24676;51.360;12.354;2022-10-14T07:37:31;19.23;;;8.38;;
38909;SDS011;24676;51.360;12.354;2022-10-14T07:40:15;8.18;;;5.15;;
38909;SDS011;24676;51.360;12.354;2022-10-14T07:43:00;12.10;;;7.85;;
38909;SDS011;24676;51.360;12.354;2022-10-14T07:45:44;9.05;;;6.03;;
38909;SDS011;24676;51.360;12.354;2022-10-14T07:48:31;13.13;;;7.50;;
38909;SDS011;24676;51.360;12.354;2022-10-14T07:51:16;11.02;;;5.30;;
38909;SDS011;24676;51.360;12.354;2022-10-14T07:54:00;10.45;;;5.88;;
38909;SDS011;24676;51.360;12.354;2022-10-14T07:56:46;10.95;;;7.35;;
38909;SDS011;24676;51.360;12.354;2022-10-14T07:59:34;13.02;;;7.53;;
38909;SDS011;24676;51.360;12.354;2022-10-14T08:02:18;10.65;;;5.22;;
38909;SDS011;24676;51.360;12.354;2022-10-14T08:05:03;11.35;;;5.07;;
38909;SDS011;24676;51.360;12.354;2022-10-14T08:07:47;11.40;;;5.22;;
38909;SDS011;24676;51.360;12.354;2022-10-14T08:10:31;8.93;;;5.35;;
38909;SDS011;24676;51.360;12.354;2022-10-14T08:13:16;8.57;;;4.93;;
38909;SDS011;24676;51.360;12.354;2022-10-14T08:16:00;11.07;;;5.85;;
38909;SDS011;24676;51.360;12.354;2022-10-14T08:18:45;11.10;;;5.03;;
38909;SDS011;24676;51.360;12.354;2022-10-14T08:21:30;9.65;;;5.30;;
38909;SDS011;24676;51.360;12.354;2022-10-14T08:24:14;9.27;;;5.00;;
38909;SDS011;24676;51.360;12.354;2022-10-14T08:26:59;12.82;;;5.38;;
38909;SDS011;24676;51.360;12.354;2022-10-14T08:29:43;6.50;;;4.68;;
38909;SDS011;24676;51.360;12.354;2022-10-14T08:32:28;10.82;;;5.97;;
38909;SDS011;24676;51.360;12.354;2022-10-14T08:35:12;6.82;;;4.60;;
38909;SDS011;24676;51.360;12.354;2022-10-14T08:37:57;7.22;;;4.80;;
38909;SDS011;24676;51.360;12.354;2022-10-14T08:40:47;9.40;;;5.03;;
38909;SDS011;24676;51.360;12.354;2022-10-14T08:43:40;6.85;;;4.05;;
38909;SDS011;24676;51.360;12.354;2022-10-14T08:46:36;6.20;;;3.70;;
38909;SDS011;24676;51.360;12.354;2022-10-14T08:52:42;11.90;;;4.20;;
38909;SDS011;24676;51.360;12.354;2022-10-14T08:55:32;9.80;;;6.60;;
38909;SDS011;24676;51.360;12.354;2022-10-14T08:58:41;10.48;;;4.97;;
38909;SDS011;24676;51.360;12.354;2022-10-14T09:01:30;10.52;;;5.00;;
38909;SDS011;24676;51.360;12.354;2022-10-14T09:06:59;8.02;;;6.72;;
38909;SDS011;24676;51.360;12.354;2022-10-14T09:09:46;13.15;;;5.47;;
38909;SDS011;24676;51.360;12.354;2022-10-14T09:12:44;13.90;;;4.38;;
38909;SDS011;24676;51.360;12.354;2022-10-14T09:15:33;5.50;;;3.92;;
38909;SDS011;24676;51.360;12.354;2022-10-14T09:18:23;6.85;;;4.13;;
38909;SDS011;24676;51.360;12.354;2022-10-14T09:24:30;8.15;;;4.57;;
38909;SDS011;24676;51.360;12.354;2022-10-14T09:27:18;7.18;;;4.10;;
38909;SDS011;24676;51.360;12.354;2022-10-14T09:30:04;10.20;;;4.32;;
38909;SDS011;24676;51.360;12.354;2022-10-14T09:32:53;5.30;;;3.50;;
38909;SDS011;24676;51.360;12.354;2022-10-14T09:35:41;4.70;;;3.17;;
38909;SDS011;24676;51.360;12.354;2022-10-14T09:38:26;10.27;;;4.40;;
38909;SDS011;24676;51.360;12.354;2022-10-14T09:41:11;3.40;;;2.63;;
38909;SDS011;24676;51.360;12.354;2022-10-14T09:47:03;3.15;;;2.33;;
38909;SDS011;24676;51.360;12.354;2022-10-14T09:49:52;5.32;;;2.83;;
38909;SDS011;24676;51.360;12.354;2022-10-14T09:52:38;5.90;;;3.87;;
38909;SDS011;24676;51.360;12.354;2022-10-14T09:55:23;2.77;;;2.10;;
38909;SDS011;24676;51.360;12.354;2022-10-14T10:00:58;2.15;;;1.90;;
38909;SDS011;24676;51.360;12.354;2022-10-14T10:03:43;5.45;;;2.10;;
38909;SDS011;24676;51.360;12.354;2022-10-14T10:06:28;5.25;;;2.70;;
38909;SDS011;24676;51.360;12.354;2022-10-14T10:09:16;2.60;;;1.60;;
38909;SDS011;24676;51.360;12.354;2022-10-14T10:15:05;1.40;;;1.30;;
38909;SDS011;24676;51.360;12.354;2022-10-14T10:29:08;0.80;;;0.80;;
38909;SDS011;24676;51.360;12.354;2022-10-14T10:38:21;2.40;;;1.30;;
38909;SDS011;24676;51.360;12.354;2022-10-14T10:43:53;6.65;;;0.80;;
38909;SDS011;24676;51.360;12.354;2022-10-14T10:53:03;0.53;;;0.53;;
38909;SDS011;24676;51.360;12.354;2022-10-14T11:05:38;0.30;;;0.30;;
38909;SDS011;24676;51.360;12.354;2022-10-14T11:45:00;1.00;;;0.80;;
38909;SDS011;24676;51.360;12.354;2022-10-14T11:48:03;1.20;;;0.80;;
38909;SDS011;24676;51.360;12.354;2022-10-14T11:51:10;1.45;;;0.80;;
38909;SDS011;24676;51.360;12.354;2022-10-14T11:54:10;0.95;;;0.63;;
38909;SDS011;24676;51.360;12.354;2022-10-14T11:57:03;1.23;;;0.60;;
38909;SDS011;24676;51.360;12.354;2022-10-14T12:06:20;2.70;;;0.90;;
38909;SDS011;24676;51.360;12.354;2022-10-14T12:11:55;1.80;;;0.55;;
38909;SDS011;24676;51.360;12.354;2022-10-14T12:14:58;0.50;;;0.50;;
38909;SDS011;24676;51.360;12.354;2022-10-14T12:17:58;1.20;;;1.05;;
38909;SDS011;24676;51.360;12.354;2022-10-14T12:20:54;1.00;;;0.32;;
38909;SDS011;24676;51.360;12.354;2022-10-14T12:49:14;0.30;;;0.30;;
38909;SDS011;24676;51.360;12.354;2022-10-14T12:52:09;0.80;;;0.40;;
38909;SDS011;24676;51.360;12.354;2022-10-14T12:55:12;0.70;;;0.43;;
38909;SDS011;24676;51.360;12.354;2022-10-14T12:58:00;0.50;;;0.50;;
38909;SDS011;24676;51.360;12.354;2022-10-14T13:00:51;2.15;;;1.55;;
38909;SDS011;24676;51.360;12.354;2022-10-14T13:03:42;1.08;;;0.60;;
38909;SDS011;24676;51.360;12.354;2022-10-14T13:07:11;0.30;;;0.30;;
38909;SDS011;24676;51.360;12.354;2022-10-14T13:10:24;1.95;;;0.40;;
38909;SDS011;24676;51.360;12.354;2022-10-14T13:19:06;1.13;;;0.75;;
38909;SDS011;24676;51.360;12.354;2022-10-14T13:28:05;0.47;;;0.47;;
38909;SDS011;24676;51.360;12.354;2022-10-14T13:34:46;0.95;;;0.52;;
38909;SDS011;24676;51.360;12.354;2022-10-14T13:37:42;0.30;;;0.30;;
38909;SDS011;24676;51.360;12.354;2022-10-14T13:40:36;0.20;;;0.20;;
38909;SDS011;24676;51.360;12.354;2022-10-14T13:43:36;0.77;;;0.50;;
38909;SDS011;24676;51.360;12.354;2022-10-14T13:46:27;3.75;;;0.68;;
38909;SDS011;24676;51.360;12.354;2022-10-14T13:49:17;1.20;;;0.80;;
38909;SDS011;24676;51.360;12.354;2022-10-14T13:57:59;0.20;;;0.20;;
38909;SDS011;24676;51.360;12.354;2022-10-14T14:03:39;0.97;;;0.67;;
38909;SDS011;24676;51.360;12.354;2022-10-14T14:06:25;0.60;;;0.50;;
38909;SDS011;24676;51.360;12.354;2022-10-14T16:38:52;1.20;;;0.60;;
38909;SDS011;24676;51.360;12.354;2022-10-14T16:47:07;0.95;;;0.95;;
38909;SDS011;24676;51.360;12.354;2022-10-14T16:50:03;0.93;;;0.75;;
38909;SDS011;24676;51.360;12.354;2022-10-14T16:52:47;2.90;;;2.63;;
38909;SDS011;24676;51.360;12.354;2022-10-14T16:55:50;5.03;;;1.20;;
38909;SDS011;24676;51.360;12.354;2022-10-14T16:58:35;0.60;;;0.60;;
38909;SDS011;24676;51.360;12.354;2022-10-14T17:01:19;1.83;;;1.50;;
38909;SDS011;24676;51.360;12.354;2022-10-14T17:04:04;2.75;;;1.55;;
38909;SDS011;24676;51.360;12.354;2022-10-14T17:06:48;4.47;;;1.42;;
38909;SDS011;24676;51.360;12.354;2022-10-14T17:09:36;1.42;;;1.33;;
38909;SDS011;24676;51.360;12.354;2022-10-14T17:12:22;1.40;;;1.30;;
38909;SDS011;24676;51.360;12.354;2022-10-14T17:15:06;1.85;;;1.23;;
38909;SDS011;24676;51.360;12.354;2022-10-14T17:17:51;3.80;;;1.17;;
38909;SDS011;24676;51.360;12.354;2022-10-14T17:20:35;2.07;;;1.90;;
38909;SDS011;24676;51.360;12.354;2022-10-14T17:23:19;7.57;;;1.58;;
38909;SDS011;24676;51.360;12.354;2022-10-14T17:26:04;2.97;;;1.70;;
38909;SDS011;24676;51.360;12.354;2022-10-14T17:28:48;1.88;;;1.50;;
38909;SDS011;24676;51.360;12.354;2022-10-14T17:31:33;2.08;;;1.40;;
38909;SDS011;24676;51.360;12.354;2022-10-14T17:34:20;1.95;;;0.95;;
38909;SDS011;24676;51.360;12.354;2022-10-14T17:37:04;2.10;;;1.90;;
38909;SDS011;24676;51.360;12.354;2022-10-14T17:39:50;1.60;;;1.30;;
38909;SDS011;24676;51.360;12.354;2022-10-14T17:42:35;1.30;;;0.98;;
38909;SDS011;24676;51.360;12.354;2022-10-14T17:45:19;4.65;;;1.30;;
38909;SDS011;24676;51.360;12.354;2022-10-14T17:48:03;3.70;;;1.20;;
38909;SDS011;24676;51.360;12.354;2022-10-14T17:50:47;1.67;;;1.35;;
38909;SDS011;24676;51.360;12.354;2022-10-14T17:53:31;2.80;;;2.15;;
38909;SDS011;24676;51.360;12.354;2022-10-14T17:56:15;3.15;;;1.38;;
38909;SDS011;24676;51.360;12.354;2022-10-14T17:59:00;4.82;;;1.83;;
38909;SDS011;24676;51.360;12.354;2022-10-14T18:01:46;8.38;;;2.90;;
38909;SDS011;24676;51.360;12.354;2022-10-14T18:04:30;3.30;;;1.83;;
38909;SDS011;24676;51.360;12.354;2022-10-14T18:07:15;2.97;;;1.92;;
38909;SDS011;24676;51.360;12.354;2022-10-14T18:10:01;2.92;;;1.85;;
38909;SDS011;24676;51.360;12.354;2022-10-14T18:12:45;2.88;;;2.35;;
38909;SDS011;24676;51.360;12.354;2022-10-14T18:15:30;2.92;;;1.75;;
38909;SDS011;24676;51.360;12.354;2022-10-14T18:18:15;12.05;;;3.17;;
38909;SDS011;24676;51.360;12.354;2022-10-14T18:21:00;4.22;;;1.88;;
38909;SDS011;24676;51.360;12.354;2022-10-14T18:23:45;1.73;;;1.17;;
38909;SDS011;24676;51.360;12.354;2022-10-14T18:26:30;1.60;;;1.50;;
38909;SDS011;24676;51.360;12.354;2022-10-14T18:29:14;3.15;;;1.58;;
38909;SDS011;24676;51.360;12.354;2022-10-14T18:31:58;4.10;;;1.85;;
38909;SDS011;24676;51.360;12.354;2022-10-14T18:34:43;4.82;;;2.22;;
38909;SDS011;24676;51.360;12.354;2022-10-14T18:37:27;2.47;;;1.55;;
38909;SDS011;24676;51.360;12.354;2022-10-14T18:40:11;2.60;;;2.40;;
38909;SDS011;24676;51.360;12.354;2022-10-14T18:42:59;3.95;;;2.50;;
38909;SDS011;24676;51.360;12.354;2022-10-14T18:45:47;2.10;;;1.90;;
38909;SDS011;24676;51.360;12.354;2022-10-14T18:48:37;4.35;;;2.28;;
38909;SDS011;24676;51.360;12.354;2022-10-14T18:51:24;5.35;;;2.72;;
38909;SDS011;24676;51.360;12.354;2022-10-14T18:54:17;3.35;;;2.03;;
38909;SDS011;24676;51.360;12.354;2022-10-14T18:57:02;2.70;;;2.00;;
38909;SDS011;24676;51.360;12.354;2022-10-14T18:59:48;4.43;;;2.45;;
38909;SDS011;24676;51.360;12.354;2022-10-14T19:02:32;4.43;;;3.08;;
38909;SDS011;24676;51.360;12.354;2022-10-14T19:08:01;8.00;;;4.20;;
38909;SDS011;24676;51.360;12.354;2022-10-14T19:10:46;11.80;;;3.90;;
38909;SDS011;24676;51.360;12.354;2022-10-14T19:13:30;4.60;;;2.80;;
38909;SDS011;24676;51.360;12.354;2022-10-14T19:16:17;4.75;;;3.25;;
38909;SDS011;24676;51.360;12.354;2022-10-14T19:19:04;6.00;;;3.10;;
38909;SDS011;24676;51.360;12.354;2022-10-14T19:21:53;6.85;;;3.63;;
38909;SDS011;24676;51.360;12.354;2022-10-14T19:24:41;4.88;;;2.33;;
38909;SDS011;24676;51.360;12.354;2022-10-14T19:27:25;2.60;;;2.13;;
38909;SDS011;24676;51.360;12.354;2022-10-14T19:30:09;6.38;;;4.78;;
38909;SDS011;24676;51.360;12.354;2022-10-14T19:32:54;8.60;;;3.70;;
38909;SDS011;24676;51.360;12.354;2022-10-14T19:35:39;3.90;;;1.92;;
38909;SDS011;24676;51.360;12.354;2022-10-14T19:38:24;3.95;;;2.92;;
38909;SDS011;24676;51.360;12.354;2022-10-14T19:41:10;5.38;;;3.03;;
38909;SDS011;24676;51.360;12.354;2022-10-14T19:43:55;2.53;;;2.33;;
38909;SDS011;24676;51.360;12.354;2022-10-14T19:46:41;4.15;;;2.50;;
38909;SDS011;24676;51.360;12.354;2022-10-14T19:49:26;3.83;;;2.30;;
38909;SDS011;24676;51.360;12.354;2022-10-14T19:52:11;3.55;;;2.70;;
38909;SDS011;24676;51.360;12.354;2022-10-14T19:54:55;4.22;;;2.45;;
38909;SDS011;24676;51.360;12.354;2022-10-14T19:57:40;2.05;;;1.60;;
38909;SDS011;24676;51.360;12.354;2022-10-14T20:00:24;2.78;;;2.38;;
38909;SDS011;24676;51.360;12.354;2022-10-14T20:03:08;3.25;;;2.53;;
38909;SDS011;24676;51.360;12.354;2022-10-14T20:05:59;6.13;;;3.45;;
38909;SDS011;24676;51.360;12.354;2022-10-14T20:08:43;4.35;;;2.90;;
38909;SDS011;24676;51.360;12.354;2022-10-14T20:11:28;6.70;;;3.05;;
38909;SDS011;24676;51.360;12.354;2022-10-14T20:14:12;5.13;;;2.20;;
38909;SDS011;24676;51.360;12.354;2022-10-14T20:16:57;7.10;;;3.25;;
38909;SDS011;24676;51.360;12.354;2022-10-14T20:19:40;4.65;;;2.40;;
38909;SDS011;24676;51.360;12.354;2022-10-14T20:22:25;2.65;;;2.10;;
38909;SDS011;24676;51.360;12.354;2022-10-14T20:25:09;8.07;;;3.65;;
38909;SDS011;24676;51.360;12.354;2022-10-14T20:27:53;4.10;;;2.63;;
38909;SDS011;24676;51.360;12.354;2022-10-14T20:30:38;5.63;;;3.45;;
38909;SDS011;24676;51.360;12.354;2022-10-14T20:33:23;3.95;;;2.70;;
38909;SDS011;24676;51.360;12.354;2022-10-14T20:36:15;6.18;;;3.47;;
38909;SDS011;24676;51.360;12.354;2022-10-14T20:39:01;10.02;;;3.25;;
38909;SDS011;24676;51.360;12.354;2022-10-14T20:41:45;8.32;;;3.28;;
38909;SDS011;24676;51.360;12.354;2022-10-14T20:44:30;3.95;;;3.38;;
38909;SDS011;24676;51.360;12.354;2022-10-14T20:47:14;6.25;;;3.97;;
38909;SDS011;24676;51.360;12.354;2022-10-14T20:49:58;8.02;;;4.18;;
38909;SDS011;24676;51.360;12.354;2022-10-14T20:52:42;7.03;;;3.80;;
38909;SDS011;24676;51.360;12.354;2022-10-14T20:55:26;6.43;;;4.93;;
38909;SDS011;24676;51.360;12.354;2022-10-14T20:58:10;5.28;;;2.97;;
